createdAt,value
2023-01-27T00:01:32.255Z,18.63
2023-01-27T00:04:22.861Z,20.13
2023-01-27T00:07:13.181Z,20.27
2023-01-27T00:10:04.022Z,19.05
2023-01-27T00:13:12.721Z,20.13
2023-01-27T00:16:03.008Z,20.25
2023-01-27T00:18:53.212Z,19.88
2023-01-27T00:22:01.574Z,20.02
2023-01-27T00:24:51.647Z,17.13
2023-01-27T00:27:41.544Z,16.20
2023-01-27T00:30:31.930Z,16.63
2023-01-27T00:33:25.543Z,18.33
2023-01-27T00:36:15.732Z,16.88
2023-01-27T00:39:07.405Z,20.65
2023-01-27T00:41:57.774Z,17.35
2023-01-27T00:45:06.910Z,16.52
2023-01-27T00:47:56.984Z,16.45
2023-01-27T00:50:47.857Z,15.57
2023-01-27T00:53:38.654Z,15.60
2023-01-27T00:56:29.455Z,15.80
2023-01-27T00:59:20.085Z,15.52
2023-01-27T01:02:10.406Z,16.08
2023-01-27T01:05:00.719Z,16.20
2023-01-27T01:07:52.741Z,15.70
2023-01-27T01:10:43.586Z,14.77
2023-01-27T01:13:34.102Z,15.50
2023-01-27T01:16:25.332Z,15.85
2023-01-27T01:19:15.705Z,14.63
2023-01-27T01:22:06.240Z,14.93
2023-01-27T01:24:57.647Z,15.30
2023-01-27T01:27:47.984Z,15.27
2023-01-27T01:30:38.531Z,15.80
2023-01-27T01:33:29.102Z,15.02
2023-01-27T01:36:21.105Z,14.75
2023-01-27T01:39:11.318Z,15.55
2023-01-27T01:42:01.741Z,14.73
2023-01-27T01:45:30.213Z,15.20
2023-01-27T01:48:31.726Z,14.95
2023-01-27T01:51:37.090Z,14.80
2023-01-27T01:54:30.295Z,13.77
2023-01-27T02:00:18.004Z,14.45
2023-01-27T02:03:11.310Z,12.93
2023-01-27T02:06:01.803Z,15.80
2023-01-27T02:08:52.577Z,15.15
2023-01-27T02:11:43.114Z,15.20
2023-01-27T02:14:33.499Z,15.35
2023-01-27T02:17:24.036Z,15.55
2023-01-27T02:20:22.671Z,15.05
2023-01-27T02:23:37.112Z,14.73
2023-01-27T02:29:17.316Z,14.43
2023-01-27T02:32:07.743Z,15.68
2023-01-27T02:34:57.970Z,14.82
2023-01-27T02:37:51.149Z,16.63
2023-01-27T02:40:42.459Z,15.25
2023-01-27T02:43:32.607Z,16.63
2023-01-27T02:46:23.398Z,15.57
2023-01-27T02:49:14.122Z,17.20
2023-01-27T02:52:04.994Z,17.08
2023-01-27T02:54:56.426Z,16.17
2023-01-27T02:57:46.895Z,14.98
2023-01-27T03:01:02.948Z,17.35
2023-01-27T03:03:53.245Z,16.85
2023-01-27T03:06:43.853Z,15.65
2023-01-27T03:09:33.855Z,16.10
2023-01-27T03:12:24.901Z,17.15
2023-01-27T03:15:34.712Z,17.00
2023-01-27T03:18:24.909Z,16.88
2023-01-27T03:21:17.956Z,16.77
2023-01-27T03:24:08.460Z,17.35
2023-01-27T03:26:58.871Z,17.75
2023-01-27T03:30:05.720Z,17.23
2023-01-27T03:32:58.430Z,18.33
2023-01-27T03:36:26.369Z,18.63
2023-01-27T03:39:35.611Z,18.42
2023-01-27T03:42:44.960Z,18.55
2023-01-27T03:45:54.862Z,19.10
2023-01-27T03:48:49.693Z,18.75
2023-01-27T03:51:39.769Z,17.85
2023-01-27T03:54:29.717Z,19.23
2023-01-27T03:57:20.020Z,17.83
2023-01-27T04:00:10.568Z,19.00
2023-01-27T04:03:22.257Z,18.50
2023-01-27T04:06:34.457Z,18.52
2023-01-27T04:09:36.459Z,19.02
2023-01-27T04:12:26.468Z,18.70
2023-01-27T04:15:17.431Z,20.42
2023-01-27T04:18:09.161Z,19.92
2023-01-27T04:20:59.241Z,18.90
2023-01-27T04:23:49.382Z,19.17
2023-01-27T04:26:41.726Z,19.08
2023-01-27T04:29:37.358Z,18.60
2023-01-27T04:32:27.757Z,19.58
2023-01-27T04:35:20.096Z,18.67
2023-01-27T04:38:12.976Z,18.27
2023-01-27T04:41:03.555Z,18.08
2023-01-27T04:43:53.735Z,17.70
2023-01-27T04:46:43.974Z,17.77
2023-01-27T04:49:33.929Z,16.70
2023-01-27T04:52:24.301Z,16.48
2023-01-27T04:55:14.566Z,15.65
2023-01-27T04:58:05.542Z,15.98
2023-01-27T05:00:55.613Z,15.07
2023-01-27T05:03:45.968Z,15.15
2023-01-27T05:06:35.963Z,15.25
2023-01-27T05:09:26.394Z,14.93
2023-01-27T05:12:16.636Z,14.20
2023-01-27T05:15:07.414Z,15.18
2023-01-27T05:17:57.779Z,14.43
2023-01-27T05:20:48.491Z,14.30
2023-01-27T05:23:39.504Z,15.20
2023-01-27T05:26:29.411Z,14.40
2023-01-27T05:29:19.371Z,14.32
2023-01-27T05:32:09.397Z,15.38
2023-01-27T05:34:59.419Z,14.60
2023-01-27T05:37:49.354Z,14.85
2023-01-27T05:40:39.881Z,14.40
2023-01-27T05:43:31.371Z,15.65
2023-01-27T05:46:24.692Z,15.10
2023-01-27T05:49:14.736Z,15.65
2023-01-27T05:52:04.848Z,15.13
2023-01-27T05:54:54.988Z,14.07
2023-01-27T05:57:44.981Z,14.32
2023-01-27T06:00:34.893Z,14.75
2023-01-27T06:03:24.812Z,14.23
2023-01-27T06:06:17.044Z,15.25
2023-01-27T06:09:06.797Z,15.15
2023-01-27T06:11:56.638Z,15.57
2023-01-27T06:14:46.497Z,14.93
2023-01-27T06:17:36.794Z,14.75
2023-01-27T06:20:26.905Z,14.48
2023-01-27T06:23:18.026Z,15.18
2023-01-27T06:26:10.904Z,14.80
2023-01-27T06:29:00.856Z,14.68
2023-01-27T06:31:51.030Z,14.77
2023-01-27T06:34:41.299Z,15.35
2023-01-27T06:37:32.369Z,15.38
2023-01-27T06:40:22.193Z,16.52
2023-01-27T06:43:14.585Z,15.85
2023-01-27T06:46:06.184Z,14.77
2023-01-27T06:48:56.372Z,15.70
2023-01-27T06:51:46.240Z,13.88
2023-01-27T06:54:36.102Z,13.95
2023-01-27T06:57:26.695Z,14.75
2023-01-27T07:00:18.011Z,12.93
2023-01-27T07:03:11.167Z,12.15
2023-01-27T07:06:01.737Z,12.35
2023-01-27T07:08:53.637Z,11.80
2023-01-27T07:11:45.615Z,12.70
2023-01-27T07:14:35.878Z,11.68
2023-01-27T07:17:25.792Z,11.57
2023-01-27T07:20:16.211Z,12.27
2023-01-27T07:23:06.535Z,11.48
2023-01-27T07:25:56.317Z,12.25
2023-01-27T07:28:46.102Z,12.57
2023-01-27T07:31:36.512Z,11.88
2023-01-27T07:34:26.728Z,12.43
2023-01-27T07:37:16.923Z,12.88
2023-01-27T07:40:08.967Z,12.88
2023-01-27T07:43:00.290Z,11.63
2023-01-27T07:45:53.991Z,12.80
2023-01-27T07:48:44.099Z,12.68
2023-01-27T07:51:33.996Z,12.13
2023-01-27T07:54:25.210Z,12.57
2023-01-27T07:57:15.363Z,15.25
2023-01-27T08:00:05.856Z,15.57
2023-01-27T08:03:03.376Z,12.80
2023-01-27T08:05:53.690Z,13.30
2023-01-27T08:08:43.612Z,12.88
2023-01-27T08:11:34.405Z,13.57
2023-01-27T08:14:24.367Z,10.52
2023-01-27T08:17:14.410Z,13.00
2023-01-27T08:20:05.506Z,14.55
2023-01-27T08:22:56.079Z,13.10
2023-01-27T08:25:53.468Z,12.68
2023-01-27T08:28:44.391Z,13.43
2023-01-27T08:31:34.421Z,13.63
2023-01-27T08:34:24.772Z,13.95
2023-01-27T08:37:14.682Z,13.10
2023-01-27T08:40:05.142Z,14.43
2023-01-27T08:42:55.500Z,14.23
2023-01-27T08:45:46.679Z,13.82
2023-01-27T08:48:37.681Z,13.90
2023-01-27T08:51:28.711Z,14.27
2023-01-27T08:54:18.977Z,14.63
2023-01-27T08:57:09.364Z,15.45
2023-01-27T08:59:59.512Z,16.60
2023-01-27T09:02:52.826Z,15.18
2023-01-27T09:05:42.717Z,14.48
2023-01-27T09:08:32.659Z,14.70
2023-01-27T09:11:22.622Z,15.48
2023-01-27T09:14:12.770Z,14.63
2023-01-27T09:17:03.302Z,13.60
2023-01-27T09:19:53.517Z,14.65
2023-01-27T09:22:44.076Z,12.77
2023-01-27T09:25:34.676Z,13.45
2023-01-27T09:28:24.660Z,14.55
2023-01-27T09:31:14.861Z,12.40
2023-01-27T09:34:05.308Z,13.20
2023-01-27T09:36:59.880Z,12.80
2023-01-27T09:39:52.323Z,12.63
2023-01-27T09:43:03.805Z,12.10
2023-01-27T09:46:09.053Z,10.93
2023-01-27T09:49:11.677Z,10.88
2023-01-27T09:52:23.560Z,12.60
2023-01-27T09:55:51.933Z,10.07
2023-01-27T09:59:09.333Z,10.57
2023-01-27T10:02:14.639Z,9.07
2023-01-27T10:05:49.070Z,10.40
2023-01-27T10:08:44.971Z,11.70
2023-01-27T10:11:50.237Z,9.90
2023-01-27T10:14:56.673Z,9.00
2023-01-27T10:18:17.604Z,8.48
2023-01-27T10:21:31.931Z,13.32
2023-01-27T10:24:40.927Z,15.65
2023-01-27T10:27:47.609Z,10.40
2023-01-27T10:30:39.323Z,12.75
2023-01-27T10:33:51.263Z,12.77
2023-01-27T10:36:51.003Z,10.05
2023-01-27T10:39:50.036Z,10.65
2023-01-27T10:43:08.296Z,11.30
2023-01-27T10:46:09.261Z,14.25
2023-01-27T10:49:22.969Z,12.13
2023-01-27T10:52:22.269Z,11.20
2023-01-27T10:55:51.377Z,12.95
2023-01-27T10:59:06.140Z,12.63
2023-01-27T11:02:03.878Z,17.40
2023-01-27T11:05:01.229Z,17.85
2023-01-27T11:08:00.027Z,17.80
2023-01-27T11:11:12.778Z,24.17
2023-01-27T11:14:28.782Z,22.05
2023-01-27T11:17:31.911Z,13.07
2023-01-27T11:20:30.907Z,13.80
2023-01-27T11:23:26.469Z,22.50
2023-01-27T11:26:58.114Z,11.40
2023-01-27T11:29:55.144Z,11.73
2023-01-27T11:33:03.303Z,12.93
2023-01-27T11:35:53.897Z,12.27
2023-01-27T11:38:43.880Z,13.90
2023-01-27T11:41:38.306Z,20.23
2023-01-27T11:44:33.990Z,14.00
2023-01-27T11:47:37.323Z,19.23
2023-01-27T11:50:34.745Z,17.13
2023-01-27T11:53:36.727Z,15.13
2023-01-27T11:56:28.365Z,13.73
2023-01-27T11:59:30.787Z,13.25
2023-01-27T12:02:32.395Z,13.90
2023-01-27T12:05:31.162Z,14.57
2023-01-27T12:08:37.859Z,14.27
2023-01-27T12:11:32.178Z,14.10
2023-01-27T12:14:23.569Z,13.60
2023-01-27T12:17:22.139Z,13.15
2023-01-27T12:20:21.567Z,12.07
2023-01-27T12:23:16.232Z,13.30
2023-01-27T12:26:08.737Z,12.10
2023-01-27T12:29:04.325Z,11.85
2023-01-27T12:31:57.267Z,12.52
2023-01-27T12:34:53.883Z,13.65
2023-01-27T12:37:44.163Z,11.80
2023-01-27T12:40:34.476Z,10.70
2023-01-27T12:43:24.840Z,10.52
2023-01-27T12:46:20.824Z,11.73
2023-01-27T12:49:14.915Z,10.50
2023-01-27T12:52:08.530Z,11.85
2023-01-27T12:54:58.906Z,12.10
2023-01-27T12:57:49.570Z,16.23
2023-01-27T13:00:45.848Z,11.88
2023-01-27T13:03:42.076Z,11.50
2023-01-27T13:06:41.973Z,11.68
2023-01-27T13:09:36.291Z,11.43
2023-01-27T13:12:28.365Z,24.23
2023-01-27T13:15:28.437Z,18.55
2023-01-27T13:18:21.966Z,12.20
2023-01-27T13:21:18.632Z,11.05
2023-01-27T13:24:21.684Z,10.55
2023-01-27T13:27:17.283Z,10.32
2023-01-27T13:30:20.220Z,10.50
2023-01-27T13:33:29.985Z,10.82
2023-01-27T13:36:35.432Z,10.85
2023-01-27T13:39:49.881Z,10.57
2023-01-27T13:46:18.422Z,11.68
2023-01-27T13:49:17.768Z,11.10
2023-01-27T13:52:08.073Z,11.10
2023-01-27T13:54:58.236Z,11.27
2023-01-27T13:58:13.677Z,12.18
2023-01-27T14:01:27.422Z,11.70
2023-01-27T14:04:39.285Z,12.63
2023-01-27T14:07:48.610Z,12.48
2023-01-27T14:10:55.886Z,12.57
2023-01-27T14:13:55.071Z,14.15
2023-01-27T14:17:00.123Z,12.95
2023-01-27T14:20:15.860Z,11.70
2023-01-27T14:23:27.737Z,10.93
2023-01-27T14:26:47.150Z,11.65
2023-01-27T14:30:05.750Z,10.20
2023-01-27T14:33:05.530Z,11.38
2023-01-27T14:36:21.233Z,11.07
2023-01-27T14:39:29.821Z,11.52
2023-01-27T14:42:41.769Z,10.32
2023-01-27T14:45:35.963Z,10.80
2023-01-27T14:48:40.993Z,10.73
2023-01-27T14:51:46.665Z,11.18
2023-01-27T14:54:58.846Z,11.63
2023-01-27T14:58:07.319Z,11.30
2023-01-27T15:01:25.352Z,13.13
2023-01-27T15:04:56.804Z,13.77
2023-01-27T15:08:09.169Z,10.07
2023-01-27T15:11:11.988Z,11.07
2023-01-27T15:14:41.281Z,9.75
2023-01-27T15:18:17.488Z,9.52
2023-01-27T15:21:30.777Z,12.15
2023-01-27T15:24:43.923Z,9.60
2023-01-27T15:27:34.527Z,14.93
2023-01-27T15:30:26.516Z,11.07
2023-01-27T15:33:54.778Z,10.25
2023-01-27T15:37:03.056Z,9.15
2023-01-27T15:40:07.663Z,10.55
2023-01-27T15:42:57.766Z,9.13
2023-01-27T15:45:48.128Z,11.82
2023-01-27T15:48:39.323Z,9.05
2023-01-27T15:51:34.752Z,8.82
2023-01-27T15:54:28.580Z,13.18
2023-01-27T15:57:33.607Z,10.48
2023-01-27T16:00:38.945Z,11.38
2023-01-27T16:03:33.304Z,11.05
2023-01-27T16:06:25.409Z,12.15
2023-01-27T16:09:24.328Z,13.00
2023-01-27T16:12:23.526Z,14.20
2023-01-27T16:15:23.412Z,9.27
2023-01-27T16:18:13.737Z,17.08
2023-01-27T16:21:07.202Z,15.02
2023-01-27T16:27:06.724Z,10.00
2023-01-27T16:30:17.773Z,41.47
2023-01-27T16:33:31.607Z,14.43
2023-01-27T16:36:27.082Z,13.53
2023-01-27T16:39:30.844Z,12.75
2023-01-27T16:42:29.316Z,9.48
2023-01-27T16:45:22.826Z,11.95
2023-01-27T16:48:23.384Z,10.50
2023-01-27T16:51:23.070Z,8.23
2023-01-27T16:54:22.770Z,8.93
2023-01-27T16:57:34.172Z,8.45
2023-01-27T17:00:34.695Z,8.38
2023-01-27T17:03:34.258Z,9.35
2023-01-27T17:06:27.331Z,9.63
2023-01-27T17:09:21.505Z,8.88
2023-01-27T17:12:35.782Z,9.80
2023-01-27T17:15:30.263Z,9.93
2023-01-27T17:18:24.050Z,9.57
2023-01-27T17:21:14.256Z,8.57
2023-01-27T17:24:16.130Z,9.43
2023-01-27T17:27:28.189Z,9.63
2023-01-27T17:30:24.813Z,15.57
2023-01-27T17:33:20.431Z,25.52
2023-01-27T17:36:11.885Z,13.38
2023-01-27T17:39:01.842Z,10.07
2023-01-27T17:41:55.629Z,9.15
2023-01-27T17:44:47.986Z,10.07
2023-01-27T17:47:44.024Z,8.80
2023-01-27T17:50:38.135Z,7.70
2023-01-27T17:53:28.599Z,8.60
2023-01-27T17:56:27.899Z,9.77
2023-01-27T17:59:24.084Z,9.57
2023-01-27T18:02:27.383Z,9.45
2023-01-27T18:05:22.244Z,9.88
2023-01-27T18:08:12.543Z,9.88
2023-01-27T18:11:22.072Z,9.50
2023-01-27T18:14:18.280Z,9.40
2023-01-27T18:17:25.880Z,9.82
2023-01-27T18:20:27.779Z,10.10
2023-01-27T18:23:27.833Z,10.88
2023-01-27T18:26:20.540Z,13.10
2023-01-27T18:29:22.754Z,11.52
2023-01-27T18:32:12.735Z,12.40
2023-01-27T18:35:04.884Z,12.90
2023-01-27T18:38:04.786Z,11.70
2023-01-27T18:40:55.930Z,10.95
2023-01-27T18:43:47.827Z,11.73
2023-01-27T18:46:37.979Z,11.75
2023-01-27T18:49:27.777Z,11.32
2023-01-27T18:52:18.678Z,10.80
2023-01-27T18:55:29.902Z,11.63
2023-01-27T18:58:20.152Z,11.88
2023-01-27T19:01:21.087Z,12.85
2023-01-27T19:04:12.822Z,13.35
2023-01-27T19:07:12.204Z,11.45
2023-01-27T19:10:02.219Z,11.10
2023-01-27T19:12:53.671Z,11.57
2023-01-27T19:15:56.451Z,10.63
2023-01-27T19:18:46.981Z,10.38
2023-01-27T19:21:37.636Z,9.48
2023-01-27T19:24:27.982Z,9.15
2023-01-27T19:27:19.475Z,9.68
2023-01-27T19:30:27.040Z,9.68
2023-01-27T19:33:19.626Z,10.00
2023-01-27T19:36:22.606Z,10.43
2023-01-27T19:39:16.952Z,9.40
2023-01-27T19:42:16.215Z,10.18
2023-01-27T19:45:07.037Z,9.00
2023-01-27T19:47:59.885Z,8.43
2023-01-27T19:50:51.737Z,8.75
2023-01-27T19:53:41.923Z,9.10
2023-01-27T19:56:32.715Z,9.05
2023-01-27T19:59:23.057Z,8.95
2023-01-27T20:02:13.604Z,9.15
2023-01-27T20:05:03.661Z,9.38
2023-01-27T20:07:58.464Z,8.13
2023-01-27T20:10:48.564Z,7.45
2023-01-27T20:13:38.684Z,8.23
2023-01-27T20:16:29.327Z,8.80
2023-01-27T20:19:19.692Z,8.88
2023-01-27T20:22:13.329Z,9.77
2023-01-27T20:25:04.260Z,11.25
2023-01-27T20:27:59.783Z,11.27
2023-01-27T20:30:49.742Z,10.38
2023-01-27T20:33:40.093Z,10.35
2023-01-27T20:36:30.550Z,11.10
2023-01-27T20:39:20.622Z,10.70
2023-01-27T20:42:10.517Z,20.13
2023-01-27T20:45:01.559Z,9.75
2023-01-27T20:47:54.017Z,10.30
2023-01-27T20:50:44.263Z,10.48
2023-01-27T20:53:37.034Z,9.00
2023-01-27T20:56:27.492Z,8.60
2023-01-27T20:59:17.894Z,9.45
2023-01-27T21:02:07.937Z,10.32
2023-01-27T21:04:58.297Z,9.40
2023-01-27T21:07:48.294Z,8.25
2023-01-27T21:10:38.665Z,8.15
2023-01-27T21:13:29.445Z,7.90
2023-01-27T21:16:19.704Z,8.07
2023-01-27T21:19:12.133Z,7.63
2023-01-27T21:22:02.193Z,7.53
2023-01-27T21:24:52.070Z,6.88
2023-01-27T21:27:43.392Z,14.02
2023-01-27T21:30:33.743Z,6.90
2023-01-27T21:33:23.747Z,6.60
2023-01-27T21:36:14.298Z,7.45
2023-01-27T21:39:05.202Z,6.88
2023-01-27T21:41:55.132Z,7.25
2023-01-27T21:45:04.258Z,8.38
2023-01-27T21:47:54.524Z,7.53
2023-01-27T21:50:54.316Z,6.78
2023-01-27T21:53:44.667Z,6.13
2023-01-27T21:56:35.220Z,12.10
2023-01-27T21:59:25.552Z,8.27
2023-01-27T22:02:16.534Z,19.15
2023-01-27T22:05:08.407Z,18.65
2023-01-27T22:08:01.983Z,15.98
2023-01-27T22:10:52.520Z,9.18
2023-01-27T22:13:42.673Z,12.60
2023-01-27T22:16:33.134Z,27.40
2023-01-27T22:19:23.695Z,14.43
2023-01-27T22:22:14.026Z,13.07
2023-01-27T22:25:04.425Z,10.00
2023-01-27T22:27:55.465Z,9.32
2023-01-27T22:30:45.794Z,8.98
2023-01-27T22:33:36.031Z,8.48
2023-01-27T22:36:26.320Z,6.15
2023-01-27T22:39:16.964Z,6.15
2023-01-27T22:42:07.244Z,5.50
2023-01-27T22:44:57.466Z,6.00
2023-01-27T22:47:47.696Z,5.90
2023-01-27T22:50:40.559Z,6.13
2023-01-27T22:53:30.742Z,5.75
2023-01-27T22:56:20.713Z,5.50
2023-01-27T22:59:13.069Z,5.45
2023-01-27T23:02:03.594Z,5.75
2023-01-27T23:04:54.302Z,4.95
2023-01-27T23:07:46.088Z,5.32
2023-01-27T23:10:36.237Z,5.75
2023-01-27T23:13:26.447Z,5.85
2023-01-27T23:16:16.735Z,6.05
2023-01-27T23:19:06.746Z,6.10
2023-01-27T23:21:57.102Z,5.18
2023-01-27T23:24:47.475Z,5.53
2023-01-27T23:27:38.059Z,5.55
2023-01-27T23:30:28.100Z,7.32
2023-01-27T23:33:19.554Z,5.68
2023-01-27T23:36:11.504Z,6.22
2023-01-27T23:39:01.773Z,5.57
2023-01-27T23:41:51.923Z,5.35
2023-01-27T23:44:42.413Z,5.15
2023-01-27T23:47:32.670Z,4.85
2023-01-27T23:50:22.933Z,5.00
2023-01-27T23:53:13.909Z,5.03
2023-01-27T23:56:04.993Z,4.93
2023-01-27T23:58:55.648Z,4.85
